createdAt,value
2023-03-06T00:02:42.031Z,29.30
2023-03-06T00:05:44.878Z,28.57
2023-03-06T00:08:47.529Z,24.58
2023-03-06T00:11:50.111Z,22.90
2023-03-06T00:14:52.681Z,24.70
2023-03-06T00:17:56.538Z,22.93
2023-03-06T00:20:59.319Z,26.27
2023-03-06T00:24:01.929Z,23.23
2023-03-06T00:27:04.756Z,26.60
2023-03-06T00:30:14.237Z,21.17
2023-03-06T00:33:17.993Z,23.77
2023-03-06T00:36:20.756Z,23.40
2023-03-06T00:39:23.683Z,22.77
2023-03-06T00:42:26.146Z,24.50
2023-03-06T00:45:28.847Z,24.58
2023-03-06T00:48:33.119Z,26.83
2023-03-06T00:51:35.712Z,25.50
2023-03-06T00:54:38.349Z,23.65
2023-03-06T00:57:41.003Z,24.73
2023-03-06T01:00:43.851Z,23.75
2023-03-06T01:03:46.426Z,24.37
2023-03-06T01:06:49.491Z,25.63
2023-03-06T01:09:52.036Z,23.83
2023-03-06T01:12:55.166Z,26.58
2023-03-06T01:16:06.965Z,27.25
2023-03-06T01:19:09.813Z,25.90
2023-03-06T01:22:12.408Z,23.37
2023-03-06T01:25:15.114Z,23.02
2023-03-06T01:28:18.487Z,26.05
2023-03-06T01:31:21.038Z,27.08
2023-03-06T01:34:23.682Z,29.10
2023-03-06T01:37:26.202Z,29.30
2023-03-06T01:40:31.899Z,30.10
2023-03-06T01:43:39.564Z,29.92
2023-03-06T01:46:43.904Z,30.80
2023-03-06T01:49:46.435Z,31.77
2023-03-06T01:52:52.610Z,25.97
2023-03-06T01:55:55.423Z,28.55
2023-03-06T01:58:58.519Z,30.83
2023-03-06T02:02:02.971Z,29.25
2023-03-06T02:05:06.954Z,29.97
2023-03-06T02:08:14.987Z,31.30
2023-03-06T02:11:20.627Z,30.50
2023-03-06T02:14:23.551Z,30.17
2023-03-06T02:17:27.097Z,27.60
2023-03-06T02:20:38.249Z,30.73
2023-03-06T02:23:48.147Z,26.77
2023-03-06T02:26:51.468Z,27.15
2023-03-06T02:29:55.001Z,25.15
2023-03-06T02:32:58.394Z,28.52
2023-03-06T02:36:04.106Z,28.23
2023-03-06T02:39:06.956Z,25.07
2023-03-06T02:42:10.628Z,28.80
2023-03-06T02:45:14.318Z,25.65
2023-03-06T02:48:18.579Z,27.80
2023-03-06T02:51:21.872Z,27.93
2023-03-06T02:54:25.339Z,30.77
2023-03-06T02:57:27.875Z,29.17
2023-03-06T03:00:32.885Z,27.40
2023-03-06T03:03:38.206Z,23.77
2023-03-06T03:06:41.058Z,20.93
2023-03-06T03:09:43.724Z,24.27
2023-03-06T03:12:46.647Z,20.77
2023-03-06T03:16:11.389Z,22.00
2023-03-06T03:19:14.446Z,20.75
2023-03-06T03:22:19.063Z,22.57
2023-03-06T03:25:25.278Z,22.37
2023-03-06T03:28:30.709Z,23.40
2023-03-06T03:31:33.447Z,25.45
2023-03-06T03:34:37.537Z,23.67
2023-03-06T03:37:41.714Z,23.63
2023-03-06T03:40:44.964Z,23.37
2023-03-06T03:43:47.797Z,24.27
2023-03-06T03:46:50.933Z,23.92
2023-03-06T03:49:57.110Z,27.02
2023-03-06T03:53:00.657Z,25.47
2023-03-06T03:56:04.006Z,24.00
2023-03-06T03:59:08.994Z,22.60
2023-03-06T04:02:18.431Z,24.38
2023-03-06T04:05:28.798Z,22.63
2023-03-06T04:08:32.012Z,28.23
2023-03-06T04:11:34.556Z,26.37
2023-03-06T04:14:37.202Z,22.70
2023-03-06T04:17:40.428Z,23.45
2023-03-06T04:20:48.217Z,22.80
2023-03-06T04:23:50.914Z,24.07
2023-03-06T04:26:53.617Z,24.53
2023-03-06T04:29:56.586Z,21.75
2023-03-06T04:32:59.565Z,21.23
2023-03-06T04:36:02.833Z,21.75
2023-03-06T04:39:07.774Z,35.17
2023-03-06T04:42:10.867Z,27.23
2023-03-06T04:45:13.925Z,36.92
2023-03-06T04:48:18.374Z,48.00
2023-03-06T04:51:21.239Z,35.60
2023-03-06T04:54:23.734Z,38.73
2023-03-06T04:57:26.352Z,24.03
2023-03-06T05:00:32.131Z,22.83
2023-03-06T05:03:34.858Z,23.70
2023-03-06T05:06:37.403Z,25.23
2023-03-06T05:09:40.001Z,25.60
2023-03-06T05:12:42.896Z,26.87
2023-03-06T05:15:45.439Z,24.00
2023-03-06T05:18:50.509Z,24.92
2023-03-06T05:21:53.276Z,21.60
2023-03-06T05:24:55.899Z,20.33
2023-03-06T05:27:58.575Z,20.50
2023-03-06T05:31:03.404Z,22.90
2023-03-06T05:34:06.049Z,22.02
2023-03-06T05:37:08.971Z,24.58
2023-03-06T05:40:12.229Z,25.77
2023-03-06T05:43:14.838Z,20.07
2023-03-06T05:46:17.421Z,25.17
2023-03-06T05:49:20.024Z,22.65
2023-03-06T05:52:22.719Z,22.10
2023-03-06T05:55:25.466Z,28.07
2023-03-06T05:58:28.943Z,20.63
2023-03-06T06:01:31.645Z,21.95
2023-03-06T06:04:34.354Z,19.63
2023-03-06T06:07:37.002Z,23.05
2023-03-06T06:10:43.943Z,20.87
2023-03-06T06:13:48.564Z,21.00
2023-03-06T06:16:51.216Z,24.30
2023-03-06T06:19:53.812Z,25.15
2023-03-06T06:22:56.412Z,20.98
2023-03-06T06:26:04.133Z,21.03
2023-03-06T06:29:06.819Z,22.30
2023-03-06T06:32:09.449Z,25.85
2023-03-06T06:35:12.081Z,20.98
2023-03-06T06:38:14.690Z,25.95
2023-03-06T06:44:39.897Z,19.83
2023-03-06T06:47:43.311Z,24.13
2023-03-06T06:50:46.249Z,31.08
2023-03-06T06:53:52.125Z,27.08
2023-03-06T06:56:54.888Z,23.47
2023-03-06T06:59:57.467Z,19.73
2023-03-06T07:03:00.147Z,23.55
2023-03-06T07:06:03.031Z,26.02
2023-03-06T07:09:05.888Z,22.27
2023-03-06T07:12:08.814Z,18.63
2023-03-06T07:15:15.940Z,25.27
2023-03-06T07:18:21.180Z,21.38
2023-03-06T07:21:23.804Z,20.13
2023-03-06T07:24:26.829Z,25.08
2023-03-06T07:27:29.488Z,20.97
2023-03-06T07:30:32.130Z,22.97
2023-03-06T07:33:34.729Z,22.00
2023-03-06T07:36:37.243Z,20.08
2023-03-06T07:39:39.855Z,20.95
2023-03-06T07:42:42.471Z,22.10
2023-03-06T07:45:56.431Z,22.10
2023-03-06T07:48:59.181Z,19.90
2023-03-06T07:52:04.865Z,16.90
2023-03-06T07:55:08.203Z,18.63
2023-03-06T07:58:11.204Z,18.37
2023-03-06T08:01:17.310Z,18.30
2023-03-06T08:04:19.938Z,15.52
2023-03-06T08:07:23.396Z,17.92
2023-03-06T08:10:26.132Z,15.90
2023-03-06T08:13:28.812Z,19.40
2023-03-06T08:16:31.682Z,19.73
2023-03-06T08:19:34.478Z,23.33
2023-03-06T08:22:37.294Z,22.10
2023-03-06T08:25:39.977Z,17.13
2023-03-06T08:28:43.276Z,16.77
2023-03-06T08:31:46.984Z,15.93
2023-03-06T08:34:49.724Z,21.55
2023-03-06T08:37:52.324Z,18.13
2023-03-06T08:40:54.979Z,18.10
2023-03-06T08:43:57.933Z,18.20
2023-03-06T08:47:00.610Z,20.70
2023-03-06T08:50:04.011Z,19.45
2023-03-06T08:53:06.629Z,17.33
2023-03-06T08:56:19.402Z,23.40
2023-03-06T08:59:22.470Z,16.90
2023-03-06T09:02:25.395Z,19.60
2023-03-06T09:05:28.227Z,21.50
2023-03-06T09:08:30.889Z,18.95
2023-03-06T09:11:34.487Z,24.13
2023-03-06T09:14:37.453Z,17.87
2023-03-06T09:17:40.567Z,15.83
2023-03-06T09:20:43.241Z,18.13
2023-03-06T09:23:45.911Z,16.85
2023-03-06T09:26:51.440Z,15.75
2023-03-06T09:29:57.957Z,18.80
2023-03-06T09:33:01.272Z,15.53
2023-03-06T09:36:04.882Z,16.48
2023-03-06T09:39:07.861Z,19.73
2023-03-06T09:42:20.348Z,25.58
2023-03-06T09:45:22.973Z,20.03
2023-03-06T09:48:39.293Z,20.30
2023-03-06T09:52:23.613Z,20.60
2023-03-06T09:55:29.133Z,21.58
2023-03-06T09:59:04.638Z,17.77
2023-03-06T10:02:24.559Z,15.10
2023-03-06T10:05:33.065Z,21.57
2023-03-06T10:08:41.534Z,16.77
2023-03-06T10:11:53.073Z,18.23
2023-03-06T10:15:03.256Z,18.35
2023-03-06T10:18:05.894Z,27.03
2023-03-06T10:21:21.486Z,19.13
2023-03-06T10:24:30.571Z,18.35
2023-03-06T10:27:58.018Z,16.75
2023-03-06T10:31:15.502Z,17.08
2023-03-06T10:34:28.539Z,19.60
2023-03-06T10:37:32.577Z,18.73
2023-03-06T10:40:42.224Z,17.38
2023-03-06T10:44:05.579Z,17.45
2023-03-06T10:47:27.728Z,17.58
2023-03-06T10:50:31.534Z,17.73
2023-03-06T10:53:34.513Z,20.10
2023-03-06T10:56:39.948Z,15.90
2023-03-06T11:00:00.402Z,18.33
2023-03-06T11:03:16.403Z,18.42
2023-03-06T11:06:34.768Z,17.50
2023-03-06T11:09:37.492Z,19.37
2023-03-06T11:12:41.542Z,18.60
2023-03-06T11:16:01.979Z,21.00
2023-03-06T11:19:17.781Z,25.40
2023-03-06T11:22:20.363Z,21.10
2023-03-06T11:25:28.200Z,19.47
2023-03-06T11:28:33.925Z,19.67
2023-03-06T11:32:07.182Z,23.58
2023-03-06T11:35:13.904Z,22.98
2023-03-06T11:38:32.324Z,22.63
2023-03-06T11:41:54.355Z,20.37
2023-03-06T11:45:16.071Z,18.08
2023-03-06T11:48:23.809Z,21.90
2023-03-06T11:51:34.756Z,17.85
2023-03-06T11:54:37.434Z,19.30
2023-03-06T11:58:01.314Z,21.50
2023-03-06T12:01:13.755Z,20.33
2023-03-06T12:04:41.527Z,23.23
2023-03-06T12:07:53.150Z,19.55
2023-03-06T12:11:10.625Z,22.93
2023-03-06T12:14:20.445Z,21.47
2023-03-06T12:17:43.014Z,20.27
2023-03-06T12:21:00.904Z,17.42
2023-03-06T12:24:21.633Z,18.80
2023-03-06T12:27:54.219Z,18.27
2023-03-06T12:31:16.006Z,21.00
2023-03-06T12:34:26.691Z,19.42
2023-03-06T12:38:09.471Z,18.25
2023-03-06T12:41:32.143Z,18.88
2023-03-06T12:45:12.016Z,18.23
2023-03-06T12:48:25.923Z,22.67
2023-03-06T12:51:29.256Z,18.00
2023-03-06T12:54:36.297Z,19.08
2023-03-06T12:57:38.872Z,19.85
2023-03-06T13:01:05.007Z,20.10
2023-03-06T13:04:13.416Z,20.97
2023-03-06T13:07:34.019Z,19.63
2023-03-06T13:10:39.670Z,29.25
2023-03-06T13:13:44.217Z,27.23
2023-03-06T13:16:47.036Z,20.70
2023-03-06T13:19:58.495Z,24.50
2023-03-06T13:23:32.125Z,21.55
2023-03-06T13:26:34.932Z,21.90
2023-03-06T13:29:37.548Z,27.42
2023-03-06T13:32:40.335Z,24.50
2023-03-06T13:35:42.906Z,24.20
2023-03-06T13:38:45.492Z,24.77
2023-03-06T13:42:00.220Z,22.88
2023-03-06T13:45:25.727Z,28.17
2023-03-06T13:48:45.168Z,21.57
2023-03-06T13:51:54.277Z,22.40
2023-03-06T13:55:18.075Z,27.83
2023-03-06T13:58:26.652Z,31.75
2023-03-06T14:01:53.957Z,27.75
2023-03-06T14:05:03.570Z,29.53
2023-03-06T14:08:15.374Z,28.67
2023-03-06T14:11:21.543Z,27.70
2023-03-06T14:14:32.140Z,27.73
2023-03-06T14:17:38.187Z,21.90
2023-03-06T14:20:43.809Z,22.40
2023-03-06T14:23:47.322Z,23.53
2023-03-06T14:26:51.951Z,28.77
2023-03-06T14:30:09.288Z,37.25
2023-03-06T14:33:12.278Z,27.08
2023-03-06T14:36:18.004Z,24.40
2023-03-06T14:39:21.371Z,24.10
2023-03-06T14:42:28.878Z,23.75
2023-03-06T14:45:31.409Z,20.27
2023-03-06T14:48:44.547Z,22.38
2023-03-06T14:51:53.172Z,23.10
2023-03-06T14:54:55.781Z,23.90
2023-03-06T14:57:59.844Z,32.38
2023-03-06T15:01:06.244Z,25.00
2023-03-06T15:04:31.957Z,24.45
2023-03-06T15:07:35.411Z,34.57
2023-03-06T15:10:38.930Z,28.83
2023-03-06T15:13:41.555Z,29.73
2023-03-06T15:16:44.188Z,29.60
2023-03-06T15:19:48.778Z,24.05
2023-03-06T15:22:51.476Z,26.53
2023-03-06T15:25:55.631Z,24.23
2023-03-06T15:29:09.617Z,28.75
2023-03-06T15:32:29.589Z,30.50
2023-03-06T15:35:37.876Z,29.42
2023-03-06T15:38:43.379Z,28.03
2023-03-06T15:41:45.954Z,28.87
2023-03-06T15:44:53.118Z,103.13
2023-03-06T15:47:56.067Z,71.30
2023-03-06T15:50:58.692Z,27.38
2023-03-06T15:54:11.891Z,35.20
2023-03-06T15:57:25.302Z,35.97
2023-03-06T16:00:38.617Z,29.42
2023-03-06T16:03:41.174Z,27.83
2023-03-06T16:06:47.017Z,27.10
2023-03-06T16:09:49.626Z,24.27
2023-03-06T16:12:57.577Z,21.70
2023-03-06T16:16:00.214Z,25.13
2023-03-06T16:19:06.044Z,35.83
2023-03-06T16:22:10.554Z,55.08
2023-03-06T16:25:14.493Z,48.20
2023-03-06T16:28:17.671Z,36.70
2023-03-06T16:31:20.278Z,55.67
2023-03-06T16:34:23.428Z,45.10
2023-03-06T16:37:26.089Z,53.38
2023-03-06T16:40:37.733Z,50.07
2023-03-06T16:43:40.518Z,52.13
2023-03-06T16:46:46.026Z,57.20
2023-03-06T16:49:49.042Z,64.10
2023-03-06T16:52:53.032Z,75.25
2023-03-06T16:55:55.667Z,84.87
2023-03-06T16:58:58.433Z,63.40
2023-03-06T17:02:01.080Z,47.10
2023-03-06T17:05:04.709Z,44.78
2023-03-06T17:08:07.284Z,44.47
2023-03-06T17:11:09.847Z,84.90
2023-03-06T17:14:12.960Z,95.53
2023-03-06T17:17:17.238Z,94.15
2023-03-06T17:20:20.669Z,55.15
2023-03-06T17:23:28.816Z,66.93
2023-03-06T17:26:31.478Z,46.63
2023-03-06T17:29:34.193Z,46.60
2023-03-06T17:32:38.399Z,61.80
2023-03-06T17:35:41.032Z,62.03
2023-03-06T17:38:43.909Z,52.05
2023-03-06T17:41:46.611Z,49.97
2023-03-06T17:44:49.337Z,166.53
2023-03-06T17:47:55.920Z,381.40
2023-03-06T17:50:58.987Z,193.20
2023-03-06T17:54:01.921Z,94.55
2023-03-06T17:57:05.833Z,56.13
2023-03-06T18:00:09.582Z,47.90
2023-03-06T18:03:15.084Z,37.22
2023-03-06T18:06:18.799Z,43.25
2023-03-06T18:09:21.395Z,52.38
2023-03-06T18:12:24.181Z,95.83
2023-03-06T18:15:26.876Z,155.37
2023-03-06T18:18:30.236Z,143.45
2023-03-06T18:21:32.870Z,245.25
2023-03-06T18:24:36.597Z,349.67
2023-03-06T18:27:39.374Z,98.93
2023-03-06T18:30:42.521Z,66.93
2023-03-06T18:33:47.752Z,41.70
2023-03-06T18:36:52.507Z,37.05
2023-03-06T18:39:55.371Z,31.23
2023-03-06T18:42:58.588Z,31.03
2023-03-06T18:46:01.665Z,41.70
2023-03-06T18:49:05.604Z,57.42
2023-03-06T18:52:08.435Z,104.75
2023-03-06T18:55:11.368Z,104.97
2023-03-06T18:58:14.237Z,51.63
2023-03-06T19:01:17.478Z,49.87
2023-03-06T19:04:20.308Z,54.03
2023-03-06T19:07:23.918Z,58.28
2023-03-06T19:10:27.675Z,62.05
2023-03-06T19:13:31.108Z,58.73
2023-03-06T19:16:33.859Z,65.40
2023-03-06T19:19:36.670Z,64.07
2023-03-06T19:22:39.242Z,88.05
2023-03-06T19:25:41.835Z,83.13
2023-03-06T19:28:44.797Z,96.17
2023-03-06T19:31:47.655Z,110.00
2023-03-06T19:34:50.302Z,94.40
2023-03-06T19:37:53.581Z,81.43
2023-03-06T19:40:57.433Z,81.78
2023-03-06T19:44:02.698Z,68.53
2023-03-06T19:47:05.465Z,77.33
2023-03-06T19:50:09.020Z,87.80
2023-03-06T19:53:11.695Z,96.25
2023-03-06T19:56:23.615Z,79.63
2023-03-06T19:59:26.377Z,82.93
2023-03-06T20:02:29.253Z,78.90
2023-03-06T20:05:31.872Z,69.85
2023-03-06T20:08:35.388Z,63.30
2023-03-06T20:11:38.796Z,70.07
2023-03-06T20:14:41.821Z,63.60
2023-03-06T20:17:44.605Z,59.50
2023-03-06T20:21:01.299Z,63.30
2023-03-06T20:24:05.724Z,47.08
2023-03-06T20:27:08.543Z,63.70
2023-03-06T20:30:11.785Z,22.07
2023-03-06T20:33:15.482Z,66.13
2023-03-06T20:36:27.607Z,45.25
2023-03-06T20:39:30.480Z,46.05
2023-03-06T20:42:34.243Z,38.80
2023-03-06T20:45:37.093Z,39.17
2023-03-06T20:48:41.091Z,35.57
2023-03-06T20:51:44.333Z,32.05
2023-03-06T20:54:47.095Z,34.15
2023-03-06T20:57:50.981Z,33.35
2023-03-06T21:00:53.739Z,36.33
2023-03-06T21:03:57.701Z,36.27
2023-03-06T21:07:00.914Z,37.20
2023-03-06T21:10:03.767Z,40.75
2023-03-06T21:13:06.465Z,44.95
2023-03-06T21:16:14.879Z,50.57
2023-03-06T21:19:17.833Z,46.57
2023-03-06T21:22:20.358Z,48.00
2023-03-06T21:25:23.246Z,45.88
2023-03-06T21:28:26.007Z,49.65
2023-03-06T21:31:29.297Z,49.93
2023-03-06T21:34:31.891Z,52.83
2023-03-06T21:37:34.498Z,51.88
2023-03-06T21:40:37.119Z,52.30
2023-03-06T21:43:40.189Z,54.40
2023-03-06T21:46:42.769Z,50.93
2023-03-06T21:49:45.390Z,53.10
2023-03-06T21:52:48.001Z,60.00
2023-03-06T21:55:50.579Z,55.40
2023-03-06T21:58:53.411Z,49.88
2023-03-06T22:01:55.983Z,58.17
2023-03-06T22:04:58.597Z,54.20
2023-03-06T22:08:01.390Z,50.17
2023-03-06T22:11:12.813Z,51.38
2023-03-06T22:14:15.515Z,50.70
2023-03-06T22:17:18.362Z,49.23
2023-03-06T22:20:20.950Z,52.70
2023-03-06T22:23:23.730Z,48.42
2023-03-06T22:26:28.143Z,45.83
2023-03-06T22:29:30.652Z,46.90
2023-03-06T22:32:33.416Z,44.90
2023-03-06T22:35:36.132Z,50.27
2023-03-06T22:38:41.751Z,46.17
2023-03-06T22:41:44.378Z,48.92
2023-03-06T22:44:46.920Z,56.42
2023-03-06T22:47:50.799Z,53.83
2023-03-06T22:50:54.411Z,58.67
2023-03-06T22:53:57.088Z,61.28
2023-03-06T22:56:59.646Z,72.38
2023-03-06T23:00:02.280Z,68.22
2023-03-06T23:03:04.893Z,66.67
2023-03-06T23:06:11.970Z,64.17
2023-03-06T23:09:21.653Z,75.00
2023-03-06T23:12:44.188Z,65.85
2023-03-06T23:16:06.960Z,53.03
2023-03-06T23:19:28.142Z,52.40
2023-03-06T23:22:49.448Z,75.73
2023-03-06T23:26:15.987Z,62.90
2023-03-06T23:29:18.603Z,56.22
2023-03-06T23:32:21.469Z,52.35
2023-03-06T23:35:24.170Z,46.37
2023-03-06T23:38:27.311Z,49.93
2023-03-06T23:41:30.155Z,45.35
2023-03-06T23:44:34.983Z,45.33
2023-03-06T23:47:37.640Z,44.60
2023-03-06T23:50:40.513Z,48.77
2023-03-06T23:53:44.374Z,43.10
2023-03-06T23:56:46.864Z,43.78
2023-03-06T23:59:49.456Z,43.20
